Time;durP1;ratioP1;P1;durP2;ratioP2;P2;SDS_P1;SDS_P2;PMS_P1;PMS_P2;Temp;Humidity;BMP_temperature;BMP_pressure;BME280_temperature;BME280_humidity;BME280_pressure;Samples;Min_cycle;Max_cycle;Signal;HPM_P1;HPM_P2
2022/05/19 00:01:07;;;;;;;6.47;2.47;;;21.70;85.10;;;;;;5044340;28;20052;-72
2022/05/19 00:03:36;;;;;;;8.65;2.95;;;21.70;85.00;;;;;;5069148;28;20149;-72
2022/05/19 00:06:07;;;;;;;7.40;3.80;;;21.70;84.90;;;;;;5075278;28;20131;-72
2022/05/19 00:08:35;;;;;;;13.55;4.13;;;21.60;84.90;;;;;;5058408;28;20110;-72
2022/05/19 00:11:09;;;;;;;8.63;3.22;;;21.60;85.30;;;;;;5058510;28;20510;-72
2022/05/19 00:13:37;;;;;;;8.13;2.53;;;21.50;85.00;;;;;;5058791;28;20760;-71
2022/05/19 00:16:06;;;;;;;6.60;2.50;;;21.50;84.70;;;;;;5042251;28;20052;-72
2022/05/19 00:18:35;;;;;;;6.93;2.53;;;21.30;84.60;;;;;;5042579;28;20048;-72
2022/05/19 00:21:04;;;;;;;8.07;3.03;;;21.40;84.20;;;;;;5075078;28;20456;-72
2022/05/19 00:23:32;;;;;;;9.50;3.45;;;21.40;84.30;;;;;;5074544;28;20047;-72
2022/05/19 00:25:59;;;;;;;7.80;3.05;;;21.40;84.80;;;;;;5057074;28;20048;-72
2022/05/19 00:28:27;;;;;;;5.55;2.40;;;21.40;85.10;;;;;;5075301;28;20048;-72
2022/05/19 00:30:54;;;;;;;9.98;2.65;;;21.40;85.30;;;;;;5089376;28;20463;-72
2022/05/19 00:33:22;;;;;;;8.30;2.58;;;21.40;85.50;;;;;;5041139;28;20083;-72
2022/05/19 00:35:49;;;;;;;9.30;2.83;;;21.50;85.50;;;;;;5058203;28;20062;-72
2022/05/19 00:38:17;;;;;;;10.45;3.35;;;21.40;85.50;;;;;;5058534;28;20040;-72
2022/05/19 00:40:50;;;;;;;4.93;2.88;;;21.50;85.70;;;;;;5092483;28;20505;-72
2022/05/19 00:43:35;;;;;;;14.32;2.70;;;21.40;85.80;;;;;;5058480;28;20048;-71
2022/05/19 00:46:08;;;;;;;6.75;2.70;;;21.40;86.00;;;;;;5041884;28;20059;-72
2022/05/19 00:49:11;;;;;;;8.40;2.78;;;21.30;85.70;;;;;;5074718;28;20068;-72
2022/05/19 00:52:01;;;;;;;8.45;2.33;;;21.20;85.80;;;;;;5074500;28;20123;-72
2022/05/19 00:54:35;;;;;;;8.68;3.35;;;21.30;85.40;;;;;;5050915;28;20120;-71
2022/05/19 00:57:12;;;;;;;9.23;2.90;;;21.30;85.20;;;;;;5054072;28;20079;-72
2022/05/19 01:00:04;;;;;;;7.75;3.47;;;21.30;85.10;;;;;;5037946;28;20039;-71
2022/05/19 01:02:36;;;;;;;6.30;2.72;;;21.30;84.40;;;;;;5072058;28;20487;-72
2022/05/19 01:05:05;;;;;;;7.40;2.05;;;21.30;84.30;;;;;;5021107;28;20176;-72
2022/05/19 01:07:39;;;;;;;6.35;2.85;;;21.20;83.80;;;;;;5071878;28;20474;-72
2022/05/19 01:10:07;;;;;;;8.02;2.80;;;21.20;83.90;;;;;;5036621;28;20044;-72
2022/05/19 01:32:28;;;;;;;13.15;2.53;;;20.90;82.70;;;;;;5076869;27;1480568;-77
2022/05/19 01:34:58;;;;;;;7.30;2.50;;;21.00;82.70;;;;;;5128446;28;20100;-77
2022/05/19 01:37:26;;;;;;;5.78;2.80;;;21.10;82.40;;;;;;5091707;28;20042;-78
2022/05/19 01:40:20;;;;;;;9.25;2.95;;;21.10;82.30;;;;;;5093222;28;20623;-77
2022/05/19 01:42:55;;;;;;;11.10;3.03;;;21.10;82.30;;;;;;5076740;28;20067;-78
2022/05/19 01:46:06;;;;;;;4.50;2.13;;;21.10;82.60;;;;;;5110416;28;20536;-77
2022/05/19 01:48:42;;;;;;;7.07;2.47;;;21.00;82.80;;;;;;5128515;28;20621;-78
2022/05/19 01:51:25;;;;;;;7.40;3.35;;;21.00;83.10;;;;;;5093058;28;20096;-78
2022/05/19 01:54:09;;;;;;;5.32;3.17;;;21.00;83.40;;;;;;5092919;28;20575;-77
2022/05/19 01:56:54;;;;;;;8.65;3.25;;;21.00;83.90;;;;;;5093454;28;20061;-78
2022/05/19 01:59:28;;;;;;;8.13;2.90;;;21.00;84.20;;;;;;5110085;28;20039;-77
2022/05/19 02:02:20;;;;;;;11.05;3.05;;;21.00;84.50;;;;;;5076138;28;20531;-77
2022/05/19 02:05:04;;;;;;;7.57;3.67;;;21.10;84.70;;;;;;5092548;28;20557;-77
2022/05/19 02:07:34;;;;;;;6.75;2.97;;;21.00;84.80;;;;;;5092991;28;20046;-77
2022/05/19 02:10:10;;;;;;;7.65;2.60;;;20.90;84.40;;;;;;5092515;28;20040;-77
2022/05/19 02:12:38;;;;;;;10.20;3.72;;;21.00;84.40;;;;;;5093130;28;20094;-78
2022/05/19 02:15:10;;;;;;;8.70;3.55;;;20.90;84.20;;;;;;5092384;28;20067;-77
2022/05/19 02:17:38;;;;;;;10.57;2.50;;;20.90;84.10;;;;;;5109707;28;20040;-77
2022/05/19 02:20:09;;;;;;;5.85;2.33;;;20.90;84.00;;;;;;5105719;28;20048;-77
2022/05/19 02:22:40;;;;;;;11.05;3.35;;;20.90;83.90;;;;;;5055513;28;20054;-78
2022/05/19 02:25:29;;;;;;;5.28;2.40;;;20.90;83.90;;;;;;5071899;28;20079;-77
2022/05/19 02:28:12;;;;;;;4.57;2.47;;;20.90;83.70;;;;;;5055367;28;20560;-77
2022/05/19 02:30:40;;;;;;;9.60;2.63;;;20.80;83.70;;;;;;5071517;28;20466;-77
2022/05/19 02:33:11;;;;;;;11.10;2.80;;;20.90;83.70;;;;;;5094465;28;20547;-77
2022/05/19 02:35:40;;;;;;;4.65;2.58;;;20.80;83.80;;;;;;5042152;28;20151;-77
2022/05/19 02:38:08;;;;;;;10.15;2.35;;;20.80;83.80;;;;;;5074865;28;20817;-77
2022/05/19 02:40:37;;;;;;;4.80;1.80;;;20.80;83.90;;;;;;5058465;28;20086;-77
2022/05/19 02:43:06;;;;;;;4.93;2.55;;;20.80;84.00;;;;;;5093185;28;20490;-77
2022/05/19 02:45:34;;;;;;;6.53;3.00;;;20.80;84.10;;;;;;5058665;28;20058;-77
2022/05/19 02:48:03;;;;;;;9.95;3.03;;;20.80;84.10;;;;;;5074443;28;20052;-77
2022/05/19 02:50:31;;;;;;;5.45;2.63;;;20.80;84.10;;;;;;5092504;28;20044;-77
2022/05/19 02:52:59;;;;;;;5.78;3.13;;;20.70;84.10;;;;;;5075159;28;20052;-77
2022/05/19 02:55:27;;;;;;;5.80;2.88;;;20.70;84.10;;;;;;5075032;28;20048;-78
2022/05/19 02:57:56;;;;;;;6.05;2.05;;;20.70;84.20;;;;;;5074455;28;20085;-76
2022/05/19 03:00:26;;;;;;;7.00;2.22;;;20.60;84.20;;;;;;5092629;28;20119;-77
2022/05/19 03:02:56;;;;;;;6.85;1.80;;;20.60;84.20;;;;;;5074506;28;20078;-77
2022/05/19 03:05:29;;;;;;;7.60;2.38;;;20.60;84.30;;;;;;5074936;28;20040;-77
2022/05/19 03:08:00;;;;;;;;;;;20.60;84.40;;;;;;5042314;28;20048;-77
2022/05/19 03:10:27;;;;;;;6.05;2.63;;;20.50;84.30;;;;;;5092653;28;20453;-77
2022/05/19 03:12:56;;;;;;;6.22;2.15;;;20.60;84.30;;;;;;5057849;28;20043;-77
2022/05/19 03:15:25;;;;;;;11.77;3.28;;;20.60;84.70;;;;;;5074354;28;20105;-77
2022/05/19 03:17:52;;;;;;;8.23;2.88;;;20.50;84.10;;;;;;5074370;28;20162;-77
2022/05/19 03:20:21;;;;;;;10.75;2.88;;;20.50;84.00;;;;;;5092332;28;20052;-77
2022/05/19 03:22:49;;;;;;;10.25;2.67;;;20.50;84.00;;;;;;5057749;28;20079;-77
2022/05/19 03:25:16;;;;;;;4.93;2.30;;;20.50;83.90;;;;;;5074202;28;20051;-77
2022/05/19 03:27:44;;;;;;;6.95;3.10;;;20.50;84.10;;;;;;5040902;28;20063;-77
2022/05/19 03:30:15;;;;;;;9.13;2.33;;;20.40;84.20;;;;;;5073855;28;20056;-77
2022/05/19 03:32:43;;;;;;;6.57;2.05;;;20.50;84.10;;;;;;5074193;28;20043;-77
2022/05/19 03:35:13;;;;;;;4.88;1.83;;;20.40;83.90;;;;;;5074215;28;20047;-77
2022/05/19 03:37:41;;;;;;;5.07;2.30;;;20.40;83.80;;;;;;5074296;28;20082;-77
2022/05/19 03:40:10;;;;;;;9.15;3.25;;;20.40;83.70;;;;;;5091829;28;20397;-77
2022/05/19 03:42:38;;;;;;;9.80;2.72;;;20.30;83.10;;;;;;5073758;28;20129;-78
2022/05/19 03:45:07;;;;;;;7.80;1.90;;;20.40;82.60;;;;;;5056390;28;20048;-77
2022/05/19 03:47:34;;;;;;;7.50;2.20;;;20.40;82.30;;;;;;5057563;28;20113;-78
2022/05/19 03:50:03;;;;;;;4.75;1.90;;;20.50;82.10;;;;;;5073698;28;20044;-77
2022/05/19 03:52:39;;;;;;;7.60;1.80;;;20.50;82.00;;;;;;5091800;28;20493;-77
2022/05/19 03:55:07;;;;;;;9.80;2.92;;;20.60;81.90;;;;;;5091570;28;20055;-77
2022/05/19 03:57:35;;;;;;;8.82;2.97;;;20.60;81.80;;;;;;5091655;28;20072;-77
2022/05/19 04:00:04;;;;;;;6.85;2.28;;;20.70;81.70;;;;;;5056538;28;20048;-78
2022/05/19 04:02:38;;;;;;;;;;;20.60;81.30;;;;;;5075020;28;20039;-77
2022/05/19 04:05:07;;;;;;;3.40;1.80;;;20.60;80.10;;;;;;5073430;28;19930;-77
2022/05/19 04:07:36;;;;;;;5.30;1.88;;;20.70;79.10;;;;;;5056741;28;20056;-77
2022/05/19 04:10:06;;;;;;;5.22;2.75;;;20.70;77.90;;;;;;5073440;28;20047;-76
2022/05/19 04:12:34;;;;;;;4.65;1.85;;;20.70;77.40;;;;;;5039839;28;20094;-77
2022/05/19 04:15:04;;;;;;;9.05;2.65;;;20.70;76.90;;;;;;5073472;28;20051;-77
2022/05/19 04:17:35;;;;;;;8.23;2.08;;;20.80;76.50;;;;;;5073428;28;20071;-77
2022/05/19 04:20:07;;;;;;;8.55;2.05;;;20.90;76.20;;;;;;5056449;28;20040;-77
2022/05/19 04:22:35;;;;;;;5.45;2.00;;;20.90;75.10;;;;;;5040275;28;20135;-77
2022/05/19 04:25:05;;;;;;;4.70;1.70;;;21.10;75.00;;;;;;5072993;28;20048;-77
2022/05/19 04:27:33;;;;;;;7.30;2.83;;;21.10;75.30;;;;;;5056952;28;20090;-77
2022/05/19 04:30:02;;;;;;;11.13;2.20;;;21.20;75.60;;;;;;5056596;28;20047;-77
2022/05/19 04:32:32;;;;;;;4.13;2.10;;;21.20;76.20;;;;;;5072435;28;20056;-77
2022/05/19 04:35:00;;;;;;;6.55;2.50;;;21.30;76.40;;;;;;5073151;28;20543;-78
2022/05/19 04:37:28;;;;;;;7.78;2.20;;;21.30;76.70;;;;;;5072928;28;20494;-77
2022/05/19 04:39:55;;;;;;;5.00;2.10;;;21.30;77.10;;;;;;5056086;28;20044;-78
2022/05/19 04:42:23;;;;;;;8.98;1.77;;;21.50;77.00;;;;;;5056329;28;20121;-77
2022/05/19 04:44:56;;;;;;;3.58;1.77;;;21.50;76.40;;;;;;5056375;28;20048;-77
2022/05/19 04:47:24;;;;;;;6.15;2.40;;;21.50;76.70;;;;;;5072719;28;20055;-77
2022/05/19 04:49:51;;;;;;;5.85;1.92;;;21.60;76.90;;;;;;5090458;28;20044;-77
2022/05/19 04:52:20;;;;;;;5.85;2.35;;;21.70;76.50;;;;;;5056073;28;20040;-77
2022/05/19 04:54:49;;;;;;;7.25;2.13;;;21.70;76.80;;;;;;5056093;28;20056;-77
2022/05/19 04:57:17;;;;;;;8.55;1.85;;;21.80;76.90;;;;;;5072802;28;20041;-77
2022/05/19 04:59:44;;;;;;;5.60;2.47;;;21.90;76.70;;;;;;5072401;28;20478;-77
2022/05/19 05:02:12;;;;;;;6.53;2.42;;;22.00;76.60;;;;;;5039530;28;20054;-77
2022/05/19 05:04:40;;;;;;;10.02;2.88;;;22.20;76.60;;;;;;5055991;28;20138;-77
2022/05/19 05:07:07;;;;;;;5.78;1.90;;;22.30;76.70;;;;;;5090575;28;20130;-78
2022/05/19 05:09:37;;;;;;;7.60;2.35;;;22.50;76.70;;;;;;5055510;28;20052;-78
2022/05/19 05:12:05;;;;;;;4.57;2.47;;;22.60;76.20;;;;;;5055528;28;20431;-77
2022/05/19 05:14:33;;;;;;;5.28;1.52;;;22.50;75.40;;;;;;5055918;28;20155;-77
2022/05/19 05:17:00;;;;;;;10.07;2.60;;;22.60;74.70;;;;;;5056145;28;20044;-77
2022/05/19 05:19:28;;;;;;;12.38;2.20;;;22.60;73.80;;;;;;5090467;28;20044;-77
2022/05/19 05:21:58;;;;;;;4.95;2.15;;;22.60;73.60;;;;;;5072100;28;20508;-78
2022/05/19 05:24:26;;;;;;;7.03;1.80;;;22.70;73.20;;;;;;5090294;28;20040;-77
2022/05/19 05:26:54;;;;;;;3.60;1.67;;;22.70;73.30;;;;;;5055429;28;20121;-77
2022/05/19 05:29:22;;;;;;;4.32;1.40;;;22.80;72.80;;;;;;5056024;28;20100;-77
2022/05/19 05:31:50;;;;;;;6.35;1.70;;;22.90;72.10;;;;;;5089943;28;20048;-77
2022/05/19 05:34:18;;;;;;;5.45;1.48;;;23.00;72.20;;;;;;5055493;28;20143;-78
2022/05/19 05:36:45;;;;;;;4.82;1.80;;;23.10;71.80;;;;;;5055409;28;20052;-78
2022/05/19 05:39:13;;;;;;;8.52;1.80;;;23.20;71.90;;;;;;5089749;28;20060;-78
2022/05/19 05:41:41;;;;;;;8.52;3.25;;;23.30;70.60;;;;;;5055641;28;20051;-78
2022/05/19 05:44:09;;;;;;;5.50;1.60;;;23.30;70.80;;;;;;5072091;28;20105;-78
2022/05/19 05:46:41;;;;;;;5.03;1.90;;;23.20;69.60;;;;;;5090103;28;20144;-78
2022/05/19 05:49:09;;;;;;;7.07;2.30;;;23.10;69.50;;;;;;5072205;28;20040;-78
2022/05/19 05:51:37;;;;;;;4.65;1.98;;;23.20;69.70;;;;;;5089480;28;20126;-78
2022/05/19 05:54:05;;;;;;;6.03;1.77;;;23.20;70.00;;;;;;5089714;28;20064;-78
2022/05/19 05:56:33;;;;;;;5.72;1.60;;;23.30;70.20;;;;;;5071921;28;20553;-78
2022/05/19 05:59:01;;;;;;;6.13;1.75;;;23.40;70.20;;;;;;5072096;28;20040;-78
2022/05/19 06:01:28;;;;;;;6.70;1.65;;;23.40;70.20;;;;;;5089830;28;20528;-78
2022/05/19 06:03:56;;;;;;;4.68;2.03;;;23.50;70.00;;;;;;5055182;28;20047;-78
2022/05/19 06:06:25;;;;;;;6.82;1.90;;;23.60;70.20;;;;;;5054892;28;20048;-78
2022/05/19 06:08:52;;;;;;;6.70;2.33;;;23.50;70.90;;;;;;5093578;28;20436;-77
2022/05/19 06:11:20;;;;;;;5.35;1.63;;;23.60;71.00;;;;;;5075463;28;20486;-78
2022/05/19 06:13:50;;;;;;;4.15;2.35;;;23.70;71.20;;;;;;5058860;28;20055;-78
2022/05/19 06:16:18;;;;;;;5.05;1.95;;;23.80;71.00;;;;;;5075583;28;20040;-78
2022/05/19 06:18:46;;;;;;;6.63;1.83;;;23.80;71.00;;;;;;5042400;28;20149;-78
2022/05/19 06:21:13;;;;;;;5.13;1.67;;;23.90;70.80;;;;;;5075644;28;20060;-78
2022/05/19 06:23:41;;;;;;;4.40;1.77;;;23.90;71.20;;;;;;5075695;28;20402;-78
2022/05/19 06:26:09;;;;;;;4.38;1.88;;;23.90;71.60;;;;;;5058921;28;20532;-78
2022/05/19 06:28:37;;;;;;;5.85;2.78;;;23.90;71.50;;;;;;5058427;28;20146;-78
2022/05/19 06:31:05;;;;;;;6.85;1.95;;;24.10;71.80;;;;;;5058277;28;20052;-79
2022/05/19 06:33:35;;;;;;;4.90;2.13;;;24.10;71.80;;;;;;5058735;28;20097;-78
2022/05/19 06:36:05;;;;;;;12.68;2.13;;;24.10;70.90;;;;;;5075374;28;20084;-78
2022/05/19 06:38:32;;;;;;;9.05;2.28;;;24.10;71.10;;;;;;5041908;28;20398;-78
2022/05/19 06:43:48;;;;;;;6.25;2.08;;;24.20;71.60;;;;;;5082531;28;20048;-78
2022/05/19 06:46:15;;;;;;;9.50;2.22;;;24.30;71.70;;;;;;5092911;28;20482;-78
2022/05/19 06:48:43;;;;;;;3.75;1.83;;;24.50;71.20;;;;;;5092798;28;20498;-78
2022/05/19 06:51:11;;;;;;;5.93;1.98;;;24.50;70.60;;;;;;5074890;28;20040;-78
2022/05/19 06:53:47;;;;;;;10.85;1.73;;;24.40;70.50;;;;;;5076153;28;20122;-78
2022/05/19 06:56:15;;;;;;;4.13;1.77;;;24.30;70.20;;;;;;5074870;28;20091;-77
2022/05/19 06:58:42;;;;;;;4.05;1.67;;;24.40;70.20;;;;;;5075277;28;20482;-78
2022/05/19 07:01:10;;;;;;;5.88;1.90;;;24.30;70.70;;;;;;5058433;28;20040;-78
2022/05/19 07:03:37;;;;;;;4.40;2.20;;;24.40;70.90;;;;;;5092549;28;20051;-79
2022/05/19 07:06:05;;;;;;;10.50;2.08;;;24.50;69.80;;;;;;5074741;28;20048;-78
2022/05/19 07:08:32;;;;;;;7.32;2.05;;;24.50;69.60;;;;;;5074331;28;20046;-78
2022/05/19 07:11:00;;;;;;;4.30;1.63;;;24.50;69.50;;;;;;5074403;28;20637;-78
2022/05/19 07:13:29;;;;;;;4.72;1.60;;;24.50;69.10;;;;;;5074509;28;20072;-78
2022/05/19 07:15:57;;;;;;;5.80;2.05;;;24.40;69.90;;;;;;5073988;28;20145;-78
2022/05/19 07:18:25;;;;;;;7.88;2.40;;;24.40;69.60;;;;;;5057728;28;20048;-78
2022/05/19 07:20:52;;;;;;;5.32;2.35;;;24.50;69.00;;;;;;5057910;28;20177;-78
2022/05/19 07:23:28;;;;;;;4.95;1.70;;;24.40;69.80;;;;;;5091991;28;20048;-78
2022/05/19 07:25:55;;;;;;;7.50;1.90;;;24.70;70.10;;;;;;5057423;28;20075;-78
2022/05/19 07:28:23;;;;;;;3.65;1.23;;;24.90;69.90;;;;;;5074226;28;20123;-78
2022/05/19 07:30:51;;;;;;;4.93;2.47;;;25.10;69.50;;;;;;5057258;28;20052;-78
2022/05/19 07:33:20;;;;;;;4.35;2.50;;;25.20;69.00;;;;;;5057264;28;20523;-78
2022/05/19 07:35:49;;;;;;;3.90;1.60;;;25.30;68.50;;;;;;5074231;28;20044;-78
2022/05/19 07:38:17;;;;;;;6.88;1.77;;;25.30;69.50;;;;;;5073992;28;20051;-78
2022/05/19 07:40:44;;;;;;;6.80;1.80;;;25.40;69.60;;;;;;5057298;28;20052;-78
2022/05/19 07:45:58;;;;;;;4.40;1.50;;;25.30;69.20;;;;;;5091558;28;20040;-76
2022/05/19 07:48:26;;;;;;;5.68;1.98;;;25.30;69.40;;;;;;5056972;28;20043;-80
2022/05/19 07:50:54;;;;;;;5.40;1.55;;;25.40;69.50;;;;;;5073907;28;20054;-79
2022/05/19 07:53:22;;;;;;;6.68;1.70;;;25.60;69.90;;;;;;5073476;28;20173;-80
2022/05/19 07:55:49;;;;;;;4.22;1.85;;;25.80;69.60;;;;;;5073310;28;20426;-79
2022/05/19 07:58:17;;;;;;;2.50;1.33;;;26.00;69.60;;;;;;5056940;28;20455;-79
2022/05/19 08:00:46;;;;;;;5.68;2.17;;;26.00;69.70;;;;;;5056980;28;20087;-78
2022/05/19 08:03:14;;;;;;;2.35;1.33;;;26.20;68.80;;;;;;5073704;28;20048;-78
2022/05/19 08:05:42;;;;;;;7.07;2.55;;;26.20;68.60;;;;;;5057046;28;20070;-78
2022/05/19 08:08:10;;;;;;;6.40;1.90;;;26.20;68.60;;;;;;5057204;28;20451;-78
2022/05/19 08:10:37;;;;;;;5.32;1.67;;;26.30;68.40;;;;;;5056056;28;20058;-78
2022/05/19 08:15:53;;;;;;;7.35;2.47;;;26.50;68.50;;;;;;5073109;28;20036;-78
2022/05/19 08:18:24;;;;;;;3.80;1.88;;;26.80;68.30;;;;;;5073336;28;20052;-79
2022/05/19 08:20:57;;;;;;;3.58;1.80;;;26.80;68.90;;;;;;5056463;28;20773;-79
2022/05/19 08:23:34;;;;;;;4.75;1.70;;;27.00;69.40;;;;;;5056342;28;20551;-78
2022/05/19 08:26:03;;;;;;;5.43;1.98;;;26.80;68.10;;;;;;5073134;28;20169;-79
2022/05/19 08:28:32;;;;;;;3.95;2.00;;;26.80;68.50;;;;;;5056933;28;20123;-78
2022/05/19 08:31:22;;;;;;;5.50;1.90;;;26.90;68.80;;;;;;5056019;28;20402;-78
2022/05/19 08:33:58;;;;;;;5.88;1.90;;;26.90;69.10;;;;;;5053123;28;20048;-79
2022/05/19 08:36:26;;;;;;;4.45;2.03;;;27.00;69.40;;;;;;5036287;28;20113;-79
2022/05/19 08:38:53;;;;;;;6.38;1.80;;;26.90;69.00;;;;;;5042031;28;20061;-79
2022/05/19 08:41:42;;;;;;;7.00;1.90;;;27.10;69.10;;;;;;5047990;28;20059;-78
2022/05/19 08:44:31;;;;;;;5.22;2.17;;;27.00;69.00;;;;;;5064193;28;20095;-79
2022/05/19 08:47:02;;;;;;;4.63;1.90;;;27.00;68.70;;;;;;5069508;28;20048;-78
2022/05/19 08:49:57;;;;;;;6.03;2.20;;;26.90;68.90;;;;;;5052860;28;20049;-79
2022/05/19 08:52:33;;;;;;;4.93;1.60;;;27.00;69.20;;;;;;5063881;28;20052;-77
2022/05/19 08:55:01;;;;;;;4.57;1.63;;;27.00;68.90;;;;;;5047254;28;20054;-77
2022/05/19 08:57:48;;;;;;;6.40;1.80;;;26.80;69.20;;;;;;5090010;28;20036;-79
2022/05/19 09:00:23;;;;;;;10.30;2.47;;;26.80;68.90;;;;;;5072334;28;20055;-74
2022/05/19 09:03:07;;;;;;;2.67;1.33;;;26.80;69.00;;;;;;5055130;28;20093;-72
2022/05/19 09:05:53;;;;;;;4.05;1.50;;;26.60;69.50;;;;;;5056116;28;20127;-74
2022/05/19 09:08:24;;;;;;;7.20;1.92;;;26.50;69.70;;;;;;5051508;28;21424;-74
2022/05/19 09:11:00;;;;;;;9.88;1.80;;;26.60;70.20;;;;;;5064055;28;20496;-73
2022/05/19 09:13:28;;;;;;;5.28;2.00;;;26.50;70.40;;;;;;5070761;28;20114;-73
2022/05/19 09:16:02;;;;;;;6.05;2.33;;;26.50;69.80;;;;;;5071739;28;20056;-72
2022/05/19 09:18:36;;;;;;;6.80;2.10;;;26.60;70.10;;;;;;5070063;28;20425;-74
2022/05/19 09:21:05;;;;;;;7.80;2.05;;;26.90;69.90;;;;;;5060168;28;20052;-73
2022/05/19 09:23:35;;;;;;;8.50;3.30;;;27.00;69.20;;;;;;5088642;28;20055;-72
2022/05/19 09:26:31;;;;;;;5.63;1.92;;;27.20;69.10;;;;;;5067509;28;20047;-75
2022/05/19 09:29:09;;;;;;;11.07;2.22;;;27.40;68.20;;;;;;5051056;28;20615;-74
2022/05/19 09:32:10;;;;;;;6.03;1.75;;;27.50;68.30;;;;;;5068663;28;20052;-74
2022/05/19 09:34:43;;;;;;;8.07;2.05;;;27.40;67.60;;;;;;5086943;28;20067;-73
2022/05/19 09:37:36;;;;;;;7.10;1.92;;;27.50;67.90;;;;;;5071327;28;20101;-74
2022/05/19 09:40:27;;;;;;;5.43;2.55;;;27.50;68.00;;;;;;5054970;28;20083;-74
2022/05/19 09:43:19;;;;;;;4.60;1.80;;;27.40;67.80;;;;;;5091416;28;20040;-74
2022/05/19 09:45:53;;;;;;;5.55;1.80;;;27.30;67.30;;;;;;5090669;28;21086;-73
2022/05/19 09:48:27;;;;;;;6.97;2.15;;;27.10;67.30;;;;;;5093251;28;20490;-73
2022/05/19 09:51:02;;;;;;;6.07;2.10;;;27.10;67.50;;;;;;5064229;28;20044;-73
2022/05/19 09:53:42;;;;;;;6.72;1.73;;;27.00;67.40;;;;;;5075151;28;20086;-77
2022/05/19 09:56:12;;;;;;;3.80;1.70;;;27.00;67.10;;;;;;5075464;28;20074;-73
2022/05/19 09:58:47;;;;;;;4.78;1.88;;;26.80;66.80;;;;;;5075052;28;20119;-74
2022/05/19 10:01:29;;;;;;;5.10;2.30;;;26.60;67.00;;;;;;5050150;28;20048;-75
2022/05/19 10:03:59;;;;;;;5.18;1.60;;;26.70;67.20;;;;;;5072702;28;20052;-73
2022/05/19 10:06:51;;;;;;;5.50;1.85;;;26.60;66.30;;;;;;5058639;28;20448;-74
2022/05/19 10:09:22;;;;;;;7.22;1.60;;;26.60;66.20;;;;;;5087507;28;20043;-73
2022/05/19 10:11:52;;;;;;;3.22;2.20;;;26.50;66.10;;;;;;5092058;28;20040;-73
2022/05/19 10:14:32;;;;;;;6.15;1.75;;;26.60;66.40;;;;;;5074498;28;20054;-73
2022/05/19 10:17:21;;;;;;;4.03;1.63;;;26.60;66.00;;;;;;5057642;28;20044;-76
2022/05/19 10:20:13;;;;;;;5.50;1.60;;;26.70;66.10;;;;;;5081640;28;20063;-73
2022/05/19 10:23:11;;;;;;;3.55;1.60;;;26.80;65.90;;;;;;5072293;28;20080;-73
2022/05/19 10:25:57;;;;;;;5.32;1.83;;;26.90;66.00;;;;;;5072806;28;20044;-75
2022/05/19 10:31:46;;;;;;;6.05;2.05;;;27.20;65.90;;;;;;5061313;28;20505;-80
2022/05/19 10:34:14;;;;;;;5.35;1.63;;;27.30;65.60;;;;;;5071694;28;20101;-75
2022/05/19 10:37:07;;;;;;;3.80;1.92;;;27.30;64.90;;;;;;5074267;28;20040;-74
2022/05/19 10:39:57;;;;;;;5.85;1.90;;;27.30;64.90;;;;;;5065634;28;20382;-74
2022/05/19 10:42:37;;;;;;;5.30;1.48;;;27.00;65.10;;;;;;5057537;28;20097;-74
2022/05/19 10:45:17;;;;;;;3.10;1.60;;;26.80;65.30;;;;;;5072998;28;20386;-74
2022/05/19 10:48:06;;;;;;;7.28;1.77;;;26.90;65.80;;;;;;5067043;28;20046;-74
2022/05/19 10:50:36;;;;;;;5.22;2.40;;;26.80;65.10;;;;;;5081984;28;20113;-73
2022/05/19 10:53:15;;;;;;;3.03;1.50;;;26.90;65.30;;;;;;5071303;28;20052;-73
2022/05/19 10:56:16;;;;;;;4.75;1.80;;;26.80;64.70;;;;;;5092074;28;20147;-75
2022/05/19 10:58:47;;;;;;;2.47;1.58;;;26.80;65.10;;;;;;5080960;28;20040;-74
2022/05/19 11:01:14;;;;;;;3.50;1.50;;;26.80;65.30;;;;;;5074243;28;20489;-73
2022/05/19 11:03:48;;;;;;;5.50;1.63;;;26.80;65.50;;;;;;5057298;28;20505;-79
2022/05/19 11:06:25;;;;;;;3.40;1.48;;;26.70;65.30;;;;;;5037930;28;20477;-74
2022/05/19 11:09:17;;;;;;;5.38;1.45;;;26.60;65.40;;;;;;5038169;28;20075;-74
2022/05/19 11:12:24;;;;;;;4.15;2.25;;;26.80;65.50;;;;;;5084041;28;20044;-73
2022/05/19 11:15:13;;;;;;;3.97;1.55;;;26.90;64.60;;;;;;5085055;28;20117;-74
2022/05/19 11:17:43;;;;;;;3.67;1.80;;;27.10;65.30;;;;;;5057654;28;20060;-74
2022/05/19 11:20:18;;;;;;;5.43;1.48;;;27.30;64.90;;;;;;5092272;28;20044;-74
2022/05/19 11:22:51;;;;;;;5.95;1.70;;;27.20;64.40;;;;;;5074457;28;20063;-73
2022/05/19 11:28:28;;;;;;;3.05;1.90;;;26.70;64.60;;;;;;5057441;28;20062;-74
2022/05/19 11:31:02;;;;;;;4.10;1.60;;;26.60;65.30;;;;;;5038786;28;20056;-73
2022/05/19 11:33:37;;;;;;;7.88;2.05;;;26.40;64.10;;;;;;5055331;28;21010;-74
2022/05/19 11:36:19;;;;;;;4.57;1.70;;;26.30;64.30;;;;;;5070575;28;20119;-73
2022/05/19 11:38:56;;;;;;;5.75;1.70;;;26.30;64.90;;;;;;5074168;28;20055;-73
2022/05/19 11:41:28;;;;;;;6.22;1.85;;;26.20;65.30;;;;;;5074118;28;20044;-73
2022/05/19 11:44:07;;;;;;;6.80;1.75;;;26.00;65.70;;;;;;5055026;28;20541;-74
2022/05/19 11:46:58;;;;;;;4.35;1.50;;;25.90;65.30;;;;;;5057291;28;20051;-73
2022/05/19 11:55:47;;;;;;;1.75;1.05;;;25.90;64.30;;;;;;5087367;28;20467;-73
2022/05/19 11:58:22;;;;;;;4.05;1.67;;;25.90;64.30;;;;;;5047563;28;20059;-75
2022/05/19 12:00:56;;;;;;;2.70;1.70;;;25.80;64.30;;;;;;5039595;28;20517;-72
2022/05/19 12:03:34;;;;;;;4.50;1.38;;;25.70;63.80;;;;;;5040652;28;20052;-72
2022/05/19 12:06:01;;;;;;;3.72;1.38;;;25.80;65.50;;;;;;5072610;28;20044;-73
2022/05/19 12:08:33;;;;;;;6.15;1.50;;;25.70;66.20;;;;;;5073330;28;20093;-73
2022/05/19 12:11:47;;;;;;;7.05;1.95;;;25.90;68.40;;;;;;5073532;28;20051;-72
2022/05/19 12:14:19;;;;;;;6.32;2.08;;;25.90;67.80;;;;;;5037974;28;20052;-73
2022/05/19 12:16:55;;;;;;;5.30;2.33;;;26.00;72.80;;;;;;5072100;28;20048;-74
2022/05/19 12:19:37;;;;;;;3.67;1.48;;;26.00;69.60;;;;;;5071598;28;20043;-76
2022/05/19 12:22:44;;;;;;;2.60;1.33;;;25.80;69.30;;;;;;5054223;28;20044;-72
2022/05/19 12:25:20;;;;;;;5.50;1.90;;;25.80;68.50;;;;;;5043738;28;20040;-75
2022/05/19 12:27:57;;;;;;;3.55;1.52;;;25.80;67.50;;;;;;5054563;28;20143;-75
2022/05/19 12:33:30;;;;;;;5.35;1.60;;;25.70;66.80;;;;;;5052883;28;20064;-72
2022/05/19 12:36:32;;;;;;;3.13;1.40;;;25.70;66.00;;;;;;5053226;28;20062;-72
2022/05/19 12:39:23;;;;;;;3.92;1.63;;;25.80;67.70;;;;;;5010104;28;20052;-74
2022/05/19 12:41:51;;;;;;;5.32;1.40;;;25.60;66.10;;;;;;5078953;28;20048;-74
2022/05/19 12:44:40;;;;;;;5.30;1.55;;;25.60;65.60;;;;;;5066452;28;20046;-74
2022/05/19 12:47:19;;;;;;;3.55;1.45;;;25.40;65.20;;;;;;5079222;28;20507;-78
2022/05/19 12:50:07;;;;;;;4.47;1.30;;;25.30;65.90;;;;;;5069463;28;20123;-72
2022/05/19 12:53:19;;;;;;;3.40;1.13;;;25.40;65.40;;;;;;5033693;28;20051;-74
2022/05/19 12:55:51;;;;;;;3.03;1.70;;;25.30;64.70;;;;;;5082238;28;20044;-73
2022/05/19 12:58:39;;;;;;;4.80;1.40;;;25.30;64.40;;;;;;5070071;28;20047;-72
2022/05/19 13:01:22;;;;;;;4.75;1.67;;;25.20;64.50;;;;;;5070296;28;20044;-75
2022/05/19 13:04:00;;;;;;;5.57;1.58;;;25.20;64.00;;;;;;5064001;28;20046;-73
2022/05/19 13:06:30;;;;;;;6.53;1.40;;;25.30;64.00;;;;;;5088370;28;20052;-75
2022/05/19 13:09:04;;;;;;;2.38;1.33;;;25.30;64.30;;;;;;5063575;28;20501;-76
2022/05/19 13:11:44;;;;;;;7.15;1.70;;;25.30;64.00;;;;;;5088758;28;20042;-73
2022/05/19 13:14:18;;;;;;;3.80;1.10;;;25.30;63.80;;;;;;5051611;28;20401;-77
2022/05/19 13:16:53;;;;;;;2.78;1.63;;;25.40;63.80;;;;;;5078047;28;20049;-74
2022/05/19 13:19:25;;;;;;;8.30;1.53;;;25.40;63.00;;;;;;5061718;28;20068;-73
2022/05/19 13:22:03;;;;;;;2.28;1.10;;;25.40;62.10;;;;;;5072635;28;20078;-73
2022/05/19 13:24:38;;;;;;;3.58;1.40;;;25.50;61.90;;;;;;5072629;28;20490;-74
2022/05/19 13:30:22;;;;;;;3.97;1.23;;;25.20;61.40;;;;;;5071918;28;20040;-74
2022/05/19 13:32:50;;;;;;;4.72;1.55;;;25.20;60.80;;;;;;5051839;28;20053;-73
2022/05/19 13:35:22;;;;;;;4.20;1.23;;;25.30;61.20;;;;;;5047852;28;20055;-75
2022/05/19 13:37:51;;;;;;;2.67;1.45;;;25.30;59.90;;;;;;5031455;28;20079;-74
2022/05/19 13:40:32;;;;;;;4.93;1.75;;;25.30;60.20;;;;;;5026311;28;20402;-76
2022/05/19 13:43:29;;;;;;;3.15;1.20;;;25.30;59.90;;;;;;5060267;28;20043;-74
2022/05/19 13:46:19;;;;;;;2.42;1.17;;;25.30;59.70;;;;;;5051061;28;20072;-73
2022/05/19 13:48:54;;;;;;;1.80;1.10;;;25.40;59.20;;;;;;5065888;28;20032;-74
2022/05/19 13:51:26;;;;;;;2.30;0.98;;;25.30;59.20;;;;;;5082227;28;20475;-75
2022/05/19 13:54:00;;;;;;;3.67;1.27;;;25.20;59.00;;;;;;5054789;28;20638;-74
2022/05/19 13:56:44;;;;;;;3.30;1.45;;;25.10;58.80;;;;;;5048695;28;20048;-73
2022/05/19 13:59:20;;;;;;;1.88;1.10;;;25.20;58.80;;;;;;5049275;28;20049;-75
2022/05/19 14:01:55;;;;;;;2.45;1.10;;;25.10;58.70;;;;;;5055708;28;20052;-73
2022/05/19 14:04:23;;;;;;;3.88;1.20;;;25.10;58.70;;;;;;5064165;28;20093;-73
2022/05/19 14:06:51;;;;;;;5.70;1.10;;;25.20;58.80;;;;;;5035557;28;20398;-73